sensor_id;sensor_type;location;lat;lon;timestamp;P1;durP1;ratioP1;P2;durP2;ratioP2
17592;SDS011;8915;51.760;14.300;2023-02-28T00:02:25;8.77;;;3.60;;
17592;SDS011;8915;51.760;14.300;2023-02-28T00:04:51;6.83;;;3.40;;
17592;SDS011;8915;51.760;14.300;2023-02-28T00:07:26;5.40;;;3.17;;
17592;SDS011;8915;51.760;14.300;2023-02-28T00:09:53;8.57;;;3.07;;
17592;SDS011;8915;51.760;14.300;2023-02-28T00:12:19;6.70;;;3.90;;
17592;SDS011;8915;51.760;14.300;2023-02-28T00:14:46;6.90;;;3.63;;
17592;SDS011;8915;51.760;14.300;2023-02-28T00:17:13;5.07;;;3.40;;
17592;SDS011;8915;51.760;14.300;2023-02-28T00:19:41;8.53;;;3.90;;
17592;SDS011;8915;51.760;14.300;2023-02-28T00:22:07;8.50;;;4.17;;
17592;SDS011;8915;51.760;14.300;2023-02-28T00:24:34;7.10;;;3.67;;
17592;SDS011;8915;51.760;14.300;2023-02-28T00:27:01;7.20;;;3.70;;
17592;SDS011;8915;51.760;14.300;2023-02-28T00:29:27;6.50;;;3.70;;
17592;SDS011;8915;51.760;14.300;2023-02-28T00:31:53;6.97;;;3.47;;
17592;SDS011;8915;51.760;14.300;2023-02-28T00:34:21;10.87;;;3.77;;
17592;SDS011;8915;51.760;14.300;2023-02-28T00:36:48;11.30;;;4.53;;
17592;SDS011;8915;51.760;14.300;2023-02-28T00:42:34;7.77;;;3.70;;
17592;SDS011;8915;51.760;14.300;2023-02-28T00:45:01;7.07;;;3.70;;
17592;SDS011;8915;51.760;14.300;2023-02-28T00:47:29;12.10;;;4.57;;
17592;SDS011;8915;51.760;14.300;2023-02-28T00:49:57;9.67;;;3.70;;
17592;SDS011;8915;51.760;14.300;2023-02-28T00:52:23;10.40;;;3.73;;
17592;SDS011;8915;51.760;14.300;2023-02-28T00:54:50;8.47;;;4.00;;
17592;SDS011;8915;51.760;14.300;2023-02-28T00:57:16;7.27;;;3.90;;
17592;SDS011;8915;51.760;14.300;2023-02-28T00:59:43;8.33;;;4.00;;
17592;SDS011;8915;51.760;14.300;2023-02-28T01:02:12;10.30;;;4.60;;
17592;SDS011;8915;51.760;14.300;2023-02-28T01:04:43;8.10;;;4.30;;
17592;SDS011;8915;51.760;14.300;2023-02-28T01:07:10;9.27;;;3.87;;
17592;SDS011;8915;51.760;14.300;2023-02-28T01:09:37;6.73;;;4.43;;
17592;SDS011;8915;51.760;14.300;2023-02-28T01:12:05;7.13;;;3.93;;
17592;SDS011;8915;51.760;14.300;2023-02-28T01:14:33;13.17;;;4.20;;
17592;SDS011;8915;51.760;14.300;2023-02-28T01:17:00;6.67;;;3.73;;
17592;SDS011;8915;51.760;14.300;2023-02-28T01:19:26;8.47;;;4.00;;
17592;SDS011;8915;51.760;14.300;2023-02-28T01:21:53;7.37;;;3.87;;
17592;SDS011;8915;51.760;14.300;2023-02-28T01:24:21;8.83;;;4.23;;
17592;SDS011;8915;51.760;14.300;2023-02-28T01:26:47;6.97;;;3.83;;
17592;SDS011;8915;51.760;14.300;2023-02-28T01:29:14;6.93;;;3.80;;
17592;SDS011;8915;51.760;14.300;2023-02-28T01:31:41;11.53;;;4.43;;
17592;SDS011;8915;51.760;14.300;2023-02-28T01:34:07;7.13;;;4.20;;
17592;SDS011;8915;51.760;14.300;2023-02-28T01:36:34;8.33;;;4.37;;
17592;SDS011;8915;51.760;14.300;2023-02-28T01:46:13;7.77;;;3.83;;
17592;SDS011;8915;51.760;14.300;2023-02-28T01:48:43;7.07;;;4.10;;
17592;SDS011;8915;51.760;14.300;2023-02-28T01:52:28;6.53;;;3.67;;
17592;SDS011;8915;51.760;14.300;2023-02-28T01:54:57;6.77;;;4.03;;
17592;SDS011;8915;51.760;14.300;2023-02-28T01:57:30;10.30;;;3.97;;
17592;SDS011;8915;51.760;14.300;2023-02-28T02:00:04;7.57;;;3.90;;
17592;SDS011;8915;51.760;14.300;2023-02-28T02:02:45;7.17;;;3.73;;
17592;SDS011;8915;51.760;14.300;2023-02-28T02:05:15;9.53;;;4.30;;
17592;SDS011;8915;51.760;14.300;2023-02-28T02:07:44;10.43;;;4.13;;
17592;SDS011;8915;51.760;14.300;2023-02-28T02:10:13;6.70;;;3.53;;
17592;SDS011;8915;51.760;14.300;2023-02-28T02:12:55;8.60;;;3.87;;
17592;SDS011;8915;51.760;14.300;2023-02-28T02:15:34;7.93;;;3.83;;
17592;SDS011;8915;51.760;14.300;2023-02-28T02:18:07;10.33;;;3.97;;
17592;SDS011;8915;51.760;14.300;2023-02-28T02:20:46;8.40;;;4.20;;
17592;SDS011;8915;51.760;14.300;2023-02-28T02:23:39;6.70;;;3.47;;
17592;SDS011;8915;51.760;14.300;2023-02-28T02:26:22;8.30;;;4.27;;
17592;SDS011;8915;51.760;14.300;2023-02-28T02:29:14;8.93;;;4.07;;
17592;SDS011;8915;51.760;14.300;2023-02-28T02:32:13;6.80;;;4.27;;
17592;SDS011;8915;51.760;14.300;2023-02-28T02:35:00;8.43;;;4.80;;
17592;SDS011;8915;51.760;14.300;2023-02-28T02:37:39;7.60;;;4.43;;
17592;SDS011;8915;51.760;14.300;2023-02-28T02:40:14;7.23;;;4.10;;
17592;SDS011;8915;51.760;14.300;2023-02-28T02:42:44;8.03;;;4.03;;
17592;SDS011;8915;51.760;14.300;2023-02-28T02:45:17;8.50;;;4.60;;
17592;SDS011;8915;51.760;14.300;2023-02-28T02:47:49;9.83;;;4.30;;
17592;SDS011;8915;51.760;14.300;2023-02-28T02:50:19;7.40;;;4.23;;
17592;SDS011;8915;51.760;14.300;2023-02-28T02:52:51;11.67;;;4.50;;
17592;SDS011;8915;51.760;14.300;2023-02-28T02:55:21;45.87;;;18.37;;
17592;SDS011;8915;51.760;14.300;2023-02-28T02:57:51;92.80;;;30.50;;
17592;SDS011;8915;51.760;14.300;2023-02-28T03:00:21;38.47;;;16.23;;
17592;SDS011;8915;51.760;14.300;2023-02-28T03:02:51;22.63;;;9.40;;
17592;SDS011;8915;51.760;14.300;2023-02-28T03:08:17;10.90;;;4.63;;
17592;SDS011;8915;51.760;14.300;2023-02-28T03:10:44;8.50;;;4.20;;
17592;SDS011;8915;51.760;14.300;2023-02-28T03:13:19;9.60;;;4.43;;
17592;SDS011;8915;51.760;14.300;2023-02-28T03:16:08;13.47;;;5.10;;
17592;SDS011;8915;51.760;14.300;2023-02-28T03:18:51;9.73;;;3.80;;
17592;SDS011;8915;51.760;14.300;2023-02-28T03:21:27;9.50;;;3.47;;
17592;SDS011;8915;51.760;14.300;2023-02-28T03:24:02;7.93;;;4.10;;
17592;SDS011;8915;51.760;14.300;2023-02-28T03:26:31;8.63;;;4.17;;
17592;SDS011;8915;51.760;14.300;2023-02-28T03:32:51;7.37;;;3.70;;
17592;SDS011;8915;51.760;14.300;2023-02-28T03:35:23;6.73;;;3.93;;
17592;SDS011;8915;51.760;14.300;2023-02-28T03:37:55;8.23;;;4.20;;
17592;SDS011;8915;51.760;14.300;2023-02-28T03:44:22;9.30;;;4.30;;
17592;SDS011;8915;51.760;14.300;2023-02-28T03:51:06;7.37;;;4.00;;
17592;SDS011;8915;51.760;14.300;2023-02-28T03:53:37;16.33;;;4.93;;
17592;SDS011;8915;51.760;14.300;2023-02-28T03:56:07;9.60;;;4.43;;
17592;SDS011;8915;51.760;14.300;2023-02-28T03:58:42;9.13;;;4.60;;
17592;SDS011;8915;51.760;14.300;2023-02-28T04:01:15;9.57;;;4.50;;
17592;SDS011;8915;51.760;14.300;2023-02-28T04:03:45;9.63;;;4.67;;
17592;SDS011;8915;51.760;14.300;2023-02-28T04:06:13;9.23;;;4.90;;
17592;SDS011;8915;51.760;14.300;2023-02-28T04:08:43;8.50;;;5.00;;
17592;SDS011;8915;51.760;14.300;2023-02-28T04:11:13;7.83;;;4.27;;
17592;SDS011;8915;51.760;14.300;2023-02-28T04:13:46;8.07;;;4.43;;
17592;SDS011;8915;51.760;14.300;2023-02-28T04:16:13;9.40;;;4.43;;
17592;SDS011;8915;51.760;14.300;2023-02-28T04:18:39;9.57;;;4.87;;
17592;SDS011;8915;51.760;14.300;2023-02-28T04:21:08;8.47;;;4.63;;
17592;SDS011;8915;51.760;14.300;2023-02-28T04:23:36;10.70;;;5.07;;
17592;SDS011;8915;51.760;14.300;2023-02-28T04:26:04;9.60;;;5.27;;
17592;SDS011;8915;51.760;14.300;2023-02-28T04:28:34;9.27;;;5.37;;
17592;SDS011;8915;51.760;14.300;2023-02-28T04:31:01;9.13;;;4.60;;
17592;SDS011;8915;51.760;14.300;2023-02-28T04:33:29;13.10;;;5.40;;
17592;SDS011;8915;51.760;14.300;2023-02-28T04:36:00;8.87;;;5.37;;
17592;SDS011;8915;51.760;14.300;2023-02-28T04:38:27;11.77;;;5.80;;
17592;SDS011;8915;51.760;14.300;2023-02-28T04:40:56;13.30;;;6.77;;
17592;SDS011;8915;51.760;14.300;2023-02-28T04:43:24;10.10;;;5.73;;
17592;SDS011;8915;51.760;14.300;2023-02-28T04:45:51;11.30;;;5.47;;
17592;SDS011;8915;51.760;14.300;2023-02-28T04:48:19;11.47;;;6.20;;
17592;SDS011;8915;51.760;14.300;2023-02-28T04:50:45;15.33;;;5.70;;
17592;SDS011;8915;51.760;14.300;2023-02-28T04:53:12;9.40;;;5.13;;
17592;SDS011;8915;51.760;14.300;2023-02-28T04:55:38;11.33;;;5.63;;
17592;SDS011;8915;51.760;14.300;2023-02-28T04:58:05;9.47;;;4.50;;
17592;SDS011;8915;51.760;14.300;2023-02-28T05:00:33;11.57;;;5.87;;
17592;SDS011;8915;51.760;14.300;2023-02-28T05:03:04;11.73;;;5.53;;
17592;SDS011;8915;51.760;14.300;2023-02-28T05:05:30;9.50;;;5.30;;
17592;SDS011;8915;51.760;14.300;2023-02-28T05:14:42;9.80;;;4.60;;
17592;SDS011;8915;51.760;14.300;2023-02-28T05:17:10;11.70;;;5.17;;
17592;SDS011;8915;51.760;14.300;2023-02-28T05:19:36;11.47;;;5.77;;
17592;SDS011;8915;51.760;14.300;2023-02-28T05:22:03;9.50;;;4.77;;
17592;SDS011;8915;51.760;14.300;2023-02-28T05:24:29;12.93;;;6.40;;
17592;SDS011;8915;51.760;14.300;2023-02-28T05:30:18;18.30;;;8.13;;
17592;SDS011;8915;51.760;14.300;2023-02-28T05:32:49;12.13;;;6.40;;
17592;SDS011;8915;51.760;14.300;2023-02-28T05:35:17;15.47;;;7.30;;
17592;SDS011;8915;51.760;14.300;2023-02-28T05:41:09;14.40;;;6.67;;
17592;SDS011;8915;51.760;14.300;2023-02-28T05:43:36;14.67;;;6.67;;
17592;SDS011;8915;51.760;14.300;2023-02-28T05:46:03;11.87;;;6.27;;
17592;SDS011;8915;51.760;14.300;2023-02-28T05:48:32;10.07;;;5.87;;
17592;SDS011;8915;51.760;14.300;2023-02-28T05:50:59;13.70;;;6.17;;
17592;SDS011;8915;51.760;14.300;2023-02-28T05:53:26;11.33;;;5.77;;
17592;SDS011;8915;51.760;14.300;2023-02-28T05:55:53;13.87;;;6.30;;
17592;SDS011;8915;51.760;14.300;2023-02-28T05:58:19;13.27;;;6.80;;
17592;SDS011;8915;51.760;14.300;2023-02-28T06:00:46;19.43;;;10.27;;
17592;SDS011;8915;51.760;14.300;2023-02-28T06:03:13;17.30;;;8.83;;
17592;SDS011;8915;51.760;14.300;2023-02-28T06:05:41;19.60;;;9.33;;
17592;SDS011;8915;51.760;14.300;2023-02-28T06:08:08;25.93;;;12.47;;
17592;SDS011;8915;51.760;14.300;2023-02-28T06:17:57;16.63;;;8.40;;
17592;SDS011;8915;51.760;14.300;2023-02-28T06:20:25;18.10;;;7.97;;
17592;SDS011;8915;51.760;14.300;2023-02-28T06:22:55;9.37;;;6.40;;
17592;SDS011;8915;51.760;14.300;2023-02-28T06:25:23;16.23;;;7.30;;
17592;SDS011;8915;51.760;14.300;2023-02-28T06:27:50;14.00;;;6.93;;
17592;SDS011;8915;51.760;14.300;2023-02-28T06:30:16;20.73;;;7.80;;
17592;SDS011;8915;51.760;14.300;2023-02-28T06:32:43;15.00;;;8.00;;
17592;SDS011;8915;51.760;14.300;2023-02-28T06:38:28;19.37;;;8.03;;
17592;SDS011;8915;51.760;14.300;2023-02-28T06:40:55;16.27;;;8.33;;
17592;SDS011;8915;51.760;14.300;2023-02-28T06:43:23;15.53;;;8.63;;
17592;SDS011;8915;51.760;14.300;2023-02-28T06:45:50;25.17;;;9.40;;
17592;SDS011;8915;51.760;14.300;2023-02-28T06:52:07;14.37;;;7.40;;
17592;SDS011;8915;51.760;14.300;2023-02-28T06:54:37;13.63;;;7.83;;
17592;SDS011;8915;51.760;14.300;2023-02-28T06:57:03;15.40;;;9.17;;
17592;SDS011;8915;51.760;14.300;2023-02-28T06:59:30;14.70;;;8.20;;
17592;SDS011;8915;51.760;14.300;2023-02-28T07:01:56;17.60;;;8.50;;
17592;SDS011;8915;51.760;14.300;2023-02-28T07:04:23;18.47;;;8.50;;
17592;SDS011;8915;51.760;14.300;2023-02-28T07:06:49;19.13;;;9.37;;
17592;SDS011;8915;51.760;14.300;2023-02-28T07:09:16;15.17;;;9.03;;
17592;SDS011;8915;51.760;14.300;2023-02-28T07:11:45;15.03;;;7.47;;
17592;SDS011;8915;51.760;14.300;2023-02-28T07:14:12;14.10;;;8.03;;
17592;SDS011;8915;51.760;14.300;2023-02-28T07:16:38;17.83;;;8.63;;
17592;SDS011;8915;51.760;14.300;2023-02-28T07:19:04;15.13;;;9.27;;
17592;SDS011;8915;51.760;14.300;2023-02-28T07:28:20;15.93;;;8.93;;
17592;SDS011;8915;51.760;14.300;2023-02-28T07:34:34;14.90;;;8.87;;
17592;SDS011;8915;51.760;14.300;2023-02-28T07:37:02;17.50;;;9.67;;
17592;SDS011;8915;51.760;14.300;2023-02-28T07:48:29;14.93;;;8.40;;
17592;SDS011;8915;51.760;14.300;2023-02-28T07:50:55;16.23;;;8.23;;
17592;SDS011;8915;51.760;14.300;2023-02-28T07:53:22;16.47;;;8.20;;
17592;SDS011;8915;51.760;14.300;2023-02-28T07:55:48;15.03;;;8.20;;
17592;SDS011;8915;51.760;14.300;2023-02-28T07:58:15;13.83;;;8.40;;
17592;SDS011;8915;51.760;14.300;2023-02-28T08:00:41;14.90;;;8.23;;
17592;SDS011;8915;51.760;14.300;2023-02-28T08:13:16;11.90;;;6.80;;
17592;SDS011;8915;51.760;14.300;2023-02-28T08:19:30;9.87;;;6.57;;
17592;SDS011;8915;51.760;14.300;2023-02-28T08:39:33;10.53;;;6.83;;
17592;SDS011;8915;51.760;14.300;2023-02-28T08:42:18;10.33;;;6.53;;
17592;SDS011;8915;51.760;14.300;2023-02-28T08:51:26;10.13;;;5.77;;
17592;SDS011;8915;51.760;14.300;2023-02-28T08:53:53;10.83;;;5.57;;
17592;SDS011;8915;51.760;14.300;2023-02-28T08:56:21;9.57;;;5.47;;
17592;SDS011;8915;51.760;14.300;2023-02-28T08:58:48;9.97;;;6.47;;
17592;SDS011;8915;51.760;14.300;2023-02-28T09:01:16;11.53;;;8.27;;
17592;SDS011;8915;51.760;14.300;2023-02-28T09:03:44;7.57;;;5.20;;
17592;SDS011;8915;51.760;14.300;2023-02-28T09:06:13;11.40;;;5.13;;
17592;SDS011;8915;51.760;14.300;2023-02-28T09:08:42;13.53;;;5.57;;
17592;SDS011;8915;51.760;14.300;2023-02-28T09:11:09;9.70;;;4.40;;
17592;SDS011;8915;51.760;14.300;2023-02-28T09:13:36;6.47;;;3.70;;
17592;SDS011;8915;51.760;14.300;2023-02-28T09:16:04;8.37;;;4.47;;
17592;SDS011;8915;51.760;14.300;2023-02-28T09:18:33;7.30;;;4.60;;
17592;SDS011;8915;51.760;14.300;2023-02-28T09:21:02;7.43;;;4.40;;
17592;SDS011;8915;51.760;14.300;2023-02-28T09:23:29;6.20;;;4.13;;
17592;SDS011;8915;51.760;14.300;2023-02-28T09:25:57;9.33;;;3.43;;
17592;SDS011;8915;51.760;14.300;2023-02-28T09:28:24;5.50;;;3.33;;
17592;SDS011;8915;51.760;14.300;2023-02-28T09:30:51;5.17;;;3.83;;
17592;SDS011;8915;51.760;14.300;2023-02-28T09:33:19;9.20;;;3.63;;
17592;SDS011;8915;51.760;14.300;2023-02-28T09:35:46;7.67;;;3.67;;
17592;SDS011;8915;51.760;14.300;2023-02-28T09:38:13;5.90;;;3.37;;
17592;SDS011;8915;51.760;14.300;2023-02-28T09:40:42;10.90;;;3.53;;
17592;SDS011;8915;51.760;14.300;2023-02-28T09:43:15;6.27;;;3.30;;
17592;SDS011;8915;51.760;14.300;2023-02-28T09:45:45;5.73;;;3.40;;
17592;SDS011;8915;51.760;14.300;2023-02-28T09:48:16;5.20;;;3.43;;
17592;SDS011;8915;51.760;14.300;2023-02-28T09:50:48;7.10;;;3.53;;
17592;SDS011;8915;51.760;14.300;2023-02-28T09:53:19;5.03;;;3.00;;
17592;SDS011;8915;51.760;14.300;2023-02-28T09:55:53;6.27;;;2.67;;
17592;SDS011;8915;51.760;14.300;2023-02-28T09:58:26;6.20;;;3.03;;
17592;SDS011;8915;51.760;14.300;2023-02-28T10:04:46;6.53;;;3.27;;
17592;SDS011;8915;51.760;14.300;2023-02-28T10:07:35;4.27;;;2.63;;
17592;SDS011;8915;51.760;14.300;2023-02-28T10:10:15;6.87;;;2.93;;
17592;SDS011;8915;51.760;14.300;2023-02-28T10:12:47;3.03;;;2.43;;
17592;SDS011;8915;51.760;14.300;2023-02-28T10:15:18;5.87;;;2.70;;
17592;SDS011;8915;51.760;14.300;2023-02-28T10:17:49;3.30;;;2.27;;
17592;SDS011;8915;51.760;14.300;2023-02-28T10:20:30;4.80;;;2.37;;
17592;SDS011;8915;51.760;14.300;2023-02-28T10:29:40;7.23;;;3.53;;
17592;SDS011;8915;51.760;14.300;2023-02-28T10:32:10;8.77;;;3.17;;
17592;SDS011;8915;51.760;14.300;2023-02-28T10:35:00;4.67;;;3.07;;
17592;SDS011;8915;51.760;14.300;2023-02-28T10:41:26;5.77;;;2.97;;
17592;SDS011;8915;51.760;14.300;2023-02-28T10:44:12;7.93;;;2.93;;
17592;SDS011;8915;51.760;14.300;2023-02-28T10:46:40;4.63;;;2.97;;
17592;SDS011;8915;51.760;14.300;2023-02-28T10:49:13;4.20;;;2.80;;
17592;SDS011;8915;51.760;14.300;2023-02-28T10:51:43;4.50;;;2.80;;
17592;SDS011;8915;51.760;14.300;2023-02-28T10:54:14;3.73;;;2.70;;
17592;SDS011;8915;51.760;14.300;2023-02-28T10:56:42;3.30;;;2.17;;
17592;SDS011;8915;51.760;14.300;2023-02-28T10:59:23;3.50;;;2.33;;
17592;SDS011;8915;51.760;14.300;2023-02-28T11:01:53;4.37;;;2.43;;
17592;SDS011;8915;51.760;14.300;2023-02-28T11:04:32;7.23;;;4.30;;
17592;SDS011;8915;51.760;14.300;2023-02-28T11:07:01;15.07;;;7.83;;
17592;SDS011;8915;51.760;14.300;2023-02-28T11:09:30;7.83;;;4.20;;
17592;SDS011;8915;51.760;14.300;2023-02-28T11:12:00;5.80;;;2.97;;
17592;SDS011;8915;51.760;14.300;2023-02-28T11:14:29;7.00;;;2.97;;
17592;SDS011;8915;51.760;14.300;2023-02-28T11:17:00;3.90;;;2.80;;
17592;SDS011;8915;51.760;14.300;2023-02-28T11:19:39;8.83;;;3.93;;
17592;SDS011;8915;51.760;14.300;2023-02-28T11:22:11;5.33;;;3.13;;
17592;SDS011;8915;51.760;14.300;2023-02-28T11:24:45;7.83;;;2.97;;
17592;SDS011;8915;51.760;14.300;2023-02-28T11:27:25;6.23;;;3.00;;
17592;SDS011;8915;51.760;14.300;2023-02-28T11:30:05;12.97;;;5.97;;
17592;SDS011;8915;51.760;14.300;2023-02-28T11:32:50;5.93;;;3.03;;
17592;SDS011;8915;51.760;14.300;2023-02-28T11:35:19;4.80;;;2.87;;
17592;SDS011;8915;51.760;14.300;2023-02-28T11:37:50;4.33;;;2.87;;
17592;SDS011;8915;51.760;14.300;2023-02-28T11:40:18;4.83;;;3.37;;
17592;SDS011;8915;51.760;14.300;2023-02-28T11:42:54;5.27;;;3.00;;
17592;SDS011;8915;51.760;14.300;2023-02-28T11:45:43;11.70;;;5.90;;
17592;SDS011;8915;51.760;14.300;2023-02-28T11:48:18;4.67;;;2.80;;
17592;SDS011;8915;51.760;14.300;2023-02-28T11:50:59;10.00;;;3.20;;
17592;SDS011;8915;51.760;14.300;2023-02-28T11:56:33;5.17;;;3.13;;
17592;SDS011;8915;51.760;14.300;2023-02-28T11:59:14;7.03;;;3.20;;
17592;SDS011;8915;51.760;14.300;2023-02-28T12:02:05;6.60;;;3.37;;
17592;SDS011;8915;51.760;14.300;2023-02-28T12:04:48;4.27;;;3.10;;
17592;SDS011;8915;51.760;14.300;2023-02-28T12:07:24;4.23;;;2.77;;
17592;SDS011;8915;51.760;14.300;2023-02-28T12:10:03;4.87;;;2.93;;
17592;SDS011;8915;51.760;14.300;2023-02-28T12:12:38;3.30;;;2.57;;
17592;SDS011;8915;51.760;14.300;2023-02-28T12:15:24;3.87;;;2.27;;
17592;SDS011;8915;51.760;14.300;2023-02-28T12:18:04;6.47;;;4.17;;
17592;SDS011;8915;51.760;14.300;2023-02-28T12:20:41;3.60;;;2.30;;
17592;SDS011;8915;51.760;14.300;2023-02-28T12:23:34;5.03;;;2.77;;
17592;SDS011;8915;51.760;14.300;2023-02-28T12:26:14;6.20;;;2.90;;
17592;SDS011;8915;51.760;14.300;2023-02-28T12:28:47;5.23;;;2.67;;
17592;SDS011;8915;51.760;14.300;2023-02-28T12:31:17;3.50;;;2.03;;
17592;SDS011;8915;51.760;14.300;2023-02-28T12:33:47;5.70;;;3.70;;
17592;SDS011;8915;51.760;14.300;2023-02-28T12:36:18;4.17;;;2.27;;
17592;SDS011;8915;51.760;14.300;2023-02-28T12:38:50;4.27;;;2.33;;
17592;SDS011;8915;51.760;14.300;2023-02-28T12:41:20;3.73;;;2.10;;
17592;SDS011;8915;51.760;14.300;2023-02-28T12:44:01;2.53;;;2.00;;
17592;SDS011;8915;51.760;14.300;2023-02-28T12:46:32;4.77;;;2.13;;
17592;SDS011;8915;51.760;14.300;2023-02-28T12:49:05;4.03;;;2.30;;
17592;SDS011;8915;51.760;14.300;2023-02-28T12:51:34;2.93;;;1.83;;
17592;SDS011;8915;51.760;14.300;2023-02-28T12:54:07;4.97;;;2.80;;
17592;SDS011;8915;51.760;14.300;2023-02-28T12:56:43;5.10;;;2.10;;
17592;SDS011;8915;51.760;14.300;2023-02-28T12:59:16;3.77;;;2.27;;
17592;SDS011;8915;51.760;14.300;2023-02-28T13:01:56;3.10;;;1.80;;
17592;SDS011;8915;51.760;14.300;2023-02-28T13:04:33;2.57;;;1.70;;
17592;SDS011;8915;51.760;14.300;2023-02-28T13:07:20;3.57;;;1.80;;
17592;SDS011;8915;51.760;14.300;2023-02-28T13:10:11;3.10;;;2.20;;
17592;SDS011;8915;51.760;14.300;2023-02-28T13:12:40;2.83;;;1.83;;
17592;SDS011;8915;51.760;14.300;2023-02-28T13:15:16;5.63;;;2.23;;
17592;SDS011;8915;51.760;14.300;2023-02-28T13:17:48;4.37;;;2.20;;
17592;SDS011;8915;51.760;14.300;2023-02-28T13:20:17;3.40;;;1.87;;
17592;SDS011;8915;51.760;14.300;2023-02-28T13:22:45;3.67;;;2.33;;
17592;SDS011;8915;51.760;14.300;2023-02-28T13:31:26;4.20;;;2.07;;
17592;SDS011;8915;51.760;14.300;2023-02-28T13:34:04;3.73;;;2.40;;
17592;SDS011;8915;51.760;14.300;2023-02-28T13:36:38;3.10;;;2.47;;
17592;SDS011;8915;51.760;14.300;2023-02-28T13:39:44;4.60;;;2.07;;
17592;SDS011;8915;51.760;14.300;2023-02-28T13:47:51;5.07;;;3.37;;
17592;SDS011;8915;51.760;14.300;2023-02-28T13:50:24;4.20;;;2.37;;
17592;SDS011;8915;51.760;14.300;2023-02-28T13:53:03;4.47;;;2.33;;
17592;SDS011;8915;51.760;14.300;2023-02-28T13:55:51;4.37;;;2.67;;
17592;SDS011;8915;51.760;14.300;2023-02-28T13:58:33;4.73;;;2.30;;
17592;SDS011;8915;51.760;14.300;2023-02-28T14:01:11;4.03;;;2.20;;
17592;SDS011;8915;51.760;14.300;2023-02-28T14:03:52;4.17;;;2.20;;
17592;SDS011;8915;51.760;14.300;2023-02-28T14:06:28;3.07;;;2.13;;
17592;SDS011;8915;51.760;14.300;2023-02-28T14:08:58;4.13;;;2.43;;
17592;SDS011;8915;51.760;14.300;2023-02-28T14:11:29;5.77;;;2.70;;
17592;SDS011;8915;51.760;14.300;2023-02-28T14:13:58;5.13;;;2.40;;
17592;SDS011;8915;51.760;14.300;2023-02-28T14:16:26;5.77;;;2.80;;
17592;SDS011;8915;51.760;14.300;2023-02-28T14:19:01;8.50;;;2.93;;
17592;SDS011;8915;51.760;14.300;2023-02-28T14:21:35;5.00;;;2.63;;
17592;SDS011;8915;51.760;14.300;2023-02-28T14:24:10;4.10;;;2.50;;
17592;SDS011;8915;51.760;14.300;2023-02-28T14:26:55;4.03;;;2.17;;
17592;SDS011;8915;51.760;14.300;2023-02-28T14:29:34;5.07;;;2.40;;
17592;SDS011;8915;51.760;14.300;2023-02-28T14:32:11;3.13;;;2.10;;
17592;SDS011;8915;51.760;14.300;2023-02-28T14:34:45;3.57;;;2.50;;
17592;SDS011;8915;51.760;14.300;2023-02-28T14:37:19;4.90;;;2.60;;
17592;SDS011;8915;51.760;14.300;2023-02-28T14:39:52;6.00;;;2.97;;
17592;SDS011;8915;51.760;14.300;2023-02-28T14:42:31;5.03;;;2.43;;
17592;SDS011;8915;51.760;14.300;2023-02-28T14:44:59;5.23;;;2.70;;
17592;SDS011;8915;51.760;14.300;2023-02-28T14:47:27;6.43;;;2.50;;
17592;SDS011;8915;51.760;14.300;2023-02-28T14:49:57;4.63;;;2.80;;
17592;SDS011;8915;51.760;14.300;2023-02-28T14:52:26;7.03;;;3.27;;
17592;SDS011;8915;51.760;14.300;2023-02-28T14:54:55;3.90;;;2.27;;
17592;SDS011;8915;51.760;14.300;2023-02-28T14:57:25;4.43;;;2.43;;
17592;SDS011;8915;51.760;14.300;2023-02-28T14:59:57;2.90;;;2.20;;
17592;SDS011;8915;51.760;14.300;2023-02-28T15:02:25;7.70;;;3.10;;
17592;SDS011;8915;51.760;14.300;2023-02-28T15:04:54;5.03;;;2.70;;
17592;SDS011;8915;51.760;14.300;2023-02-28T15:07:22;7.07;;;2.83;;
17592;SDS011;8915;51.760;14.300;2023-02-28T15:10:06;4.63;;;2.97;;
17592;SDS011;8915;51.760;14.300;2023-02-28T15:12:34;4.13;;;2.23;;
17592;SDS011;8915;51.760;14.300;2023-02-28T15:15:01;3.30;;;2.60;;
17592;SDS011;8915;51.760;14.300;2023-02-28T15:17:28;6.10;;;2.90;;
17592;SDS011;8915;51.760;14.300;2023-02-28T15:19:57;6.63;;;2.70;;
17592;SDS011;8915;51.760;14.300;2023-02-28T15:22:25;5.63;;;3.20;;
17592;SDS011;8915;51.760;14.300;2023-02-28T15:24:54;4.67;;;2.83;;
17592;SDS011;8915;51.760;14.300;2023-02-28T15:27:22;6.00;;;3.03;;
17592;SDS011;8915;51.760;14.300;2023-02-28T15:29:51;4.57;;;2.73;;
17592;SDS011;8915;51.760;14.300;2023-02-28T15:32:23;6.03;;;2.80;;
17592;SDS011;8915;51.760;14.300;2023-02-28T15:34:53;8.67;;;2.80;;
17592;SDS011;8915;51.760;14.300;2023-02-28T15:37:28;3.47;;;2.50;;
17592;SDS011;8915;51.760;14.300;2023-02-28T15:40:04;4.13;;;2.37;;
17592;SDS011;8915;51.760;14.300;2023-02-28T15:42:37;4.57;;;2.70;;
17592;SDS011;8915;51.760;14.300;2023-02-28T15:45:04;5.90;;;2.33;;
17592;SDS011;8915;51.760;14.300;2023-02-28T15:47:31;5.33;;;2.47;;
17592;SDS011;8915;51.760;14.300;2023-02-28T15:49:59;5.03;;;2.70;;
17592;SDS011;8915;51.760;14.300;2023-02-28T15:52:53;5.73;;;3.20;;
17592;SDS011;8915;51.760;14.300;2023-02-28T15:55:20;6.13;;;3.07;;
17592;SDS011;8915;51.760;14.300;2023-02-28T15:57:50;5.17;;;2.70;;
17592;SDS011;8915;51.760;14.300;2023-02-28T16:00:19;5.80;;;2.87;;
17592;SDS011;8915;51.760;14.300;2023-02-28T16:02:47;7.33;;;3.03;;
17592;SDS011;8915;51.760;14.300;2023-02-28T16:05:20;5.60;;;2.63;;
17592;SDS011;8915;51.760;14.300;2023-02-28T16:07:54;4.10;;;2.23;;
17592;SDS011;8915;51.760;14.300;2023-02-28T16:10:22;6.37;;;2.83;;
17592;SDS011;8915;51.760;14.300;2023-02-28T16:12:52;4.37;;;2.67;;
17592;SDS011;8915;51.760;14.300;2023-02-28T16:15:20;3.67;;;2.53;;
17592;SDS011;8915;51.760;14.300;2023-02-28T16:17:48;5.53;;;2.60;;
17592;SDS011;8915;51.760;14.300;2023-02-28T16:20:16;6.20;;;3.10;;
17592;SDS011;8915;51.760;14.300;2023-02-28T16:22:43;5.37;;;3.40;;
17592;SDS011;8915;51.760;14.300;2023-02-28T16:25:15;5.83;;;2.97;;
17592;SDS011;8915;51.760;14.300;2023-02-28T16:27:45;5.90;;;3.13;;
17592;SDS011;8915;51.760;14.300;2023-02-28T16:30:16;6.57;;;3.20;;
17592;SDS011;8915;51.760;14.300;2023-02-28T16:32:46;7.60;;;4.10;;
17592;SDS011;8915;51.760;14.300;2023-02-28T16:35:12;5.30;;;3.50;;
17592;SDS011;8915;51.760;14.300;2023-02-28T16:37:39;3.83;;;2.80;;
17592;SDS011;8915;51.760;14.300;2023-02-28T16:40:06;6.00;;;3.63;;
17592;SDS011;8915;51.760;14.300;2023-02-28T16:42:35;6.90;;;3.73;;
17592;SDS011;8915;51.760;14.300;2023-02-28T16:45:04;6.13;;;3.47;;
17592;SDS011;8915;51.760;14.300;2023-02-28T16:47:31;9.63;;;5.30;;
17592;SDS011;8915;51.760;14.300;2023-02-28T16:49:58;13.67;;;6.10;;
17592;SDS011;8915;51.760;14.300;2023-02-28T16:52:24;12.23;;;6.47;;
17592;SDS011;8915;51.760;14.300;2023-02-28T16:54:51;14.07;;;6.80;;
17592;SDS011;8915;51.760;14.300;2023-02-28T16:57:20;18.57;;;9.20;;
17592;SDS011;8915;51.760;14.300;2023-02-28T16:59:49;21.30;;;9.73;;
17592;SDS011;8915;51.760;14.300;2023-02-28T17:02:17;21.80;;;9.37;;
17592;SDS011;8915;51.760;14.300;2023-02-28T17:04:45;25.63;;;10.30;;
17592;SDS011;8915;51.760;14.300;2023-02-28T17:07:11;16.07;;;7.67;;
17592;SDS011;8915;51.760;14.300;2023-02-28T17:09:40;25.60;;;10.00;;
17592;SDS011;8915;51.760;14.300;2023-02-28T17:12:07;15.37;;;8.97;;
17592;SDS011;8915;51.760;14.300;2023-02-28T17:14:34;18.17;;;7.47;;
17592;SDS011;8915;51.760;14.300;2023-02-28T17:17:02;14.43;;;6.90;;
17592;SDS011;8915;51.760;14.300;2023-02-28T17:19:30;13.37;;;6.50;;
17592;SDS011;8915;51.760;14.300;2023-02-28T17:21:56;15.93;;;6.40;;
17592;SDS011;8915;51.760;14.300;2023-02-28T17:24:23;11.30;;;5.83;;
17592;SDS011;8915;51.760;14.300;2023-02-28T17:26:49;15.13;;;7.93;;
17592;SDS011;8915;51.760;14.300;2023-02-28T17:29:16;14.93;;;7.70;;